createdAt,value
2018-04-12T00:00:50.549Z,1002.48
2018-04-12T00:01:50.826Z,1002.44
2018-04-12T00:02:50.509Z,1002.45
2018-04-12T00:03:50.486Z,1002.42
2018-04-12T00:04:50.467Z,1002.37
2018-04-12T00:05:50.511Z,1002.34
2018-04-12T00:06:50.433Z,1002.26
2018-04-12T00:07:50.412Z,1002.28
2018-04-12T00:08:50.995Z,1002.23
2018-04-12T00:09:50.385Z,1002.21
2018-04-12T00:10:50.357Z,1002.19
2018-04-12T00:11:50.445Z,1002.19
2018-04-12T00:12:50.327Z,1002.19
2018-04-12T00:13:50.308Z,1002.18
2018-04-12T00:14:50.286Z,1002.19
2018-04-12T00:15:50.576Z,1002.23
2018-04-12T00:16:50.354Z,1002.24
2018-04-12T00:17:50.232Z,1002.24
2018-04-12T00:18:50.236Z,1002.33
2018-04-12T00:19:50.200Z,1002.37
2018-04-12T00:20:50.177Z,1002.35
2018-04-12T00:21:50.168Z,1002.41
2018-04-12T00:22:50.498Z,1002.39
2018-04-12T00:23:50.175Z,1002.32
2018-04-12T00:24:50.119Z,1002.34
2018-04-12T00:25:50.097Z,1002.37
2018-04-12T00:26:50.119Z,1002.36
2018-04-12T00:27:50.058Z,1002.38
2018-04-12T00:29:50.370Z,1002.41
2018-04-12T00:30:49.998Z,1002.44
2018-04-12T00:31:49.987Z,1002.42
2018-04-12T00:32:49.966Z,1002.44
2018-04-12T00:33:49.950Z,1002.44
2018-04-12T00:34:49.922Z,1002.43
2018-04-12T00:35:49.958Z,1002.40
2018-04-12T00:36:50.193Z,1002.34
2018-04-12T00:37:49.872Z,1002.34
2018-04-12T00:38:49.869Z,1002.39
2018-04-12T00:39:49.941Z,1002.33
2018-04-12T00:40:49.815Z,1002.28
2018-04-12T00:41:49.860Z,1002.27
2018-04-12T00:43:50.066Z,1002.28
2018-04-12T00:44:49.804Z,1002.26
2018-04-12T00:45:49.879Z,1002.28
2018-04-12T00:46:49.708Z,1002.26
2018-04-12T00:47:49.692Z,1002.24
2018-04-12T00:48:49.673Z,1002.23
2018-04-12T00:49:49.706Z,1002.24
2018-04-12T00:50:49.934Z,1002.23
2018-04-12T00:51:49.666Z,1002.21
2018-04-12T00:52:49.596Z,1002.21
2018-04-12T00:53:49.578Z,1002.17
2018-04-12T00:54:49.573Z,1002.18
2018-04-12T00:55:49.546Z,1002.16
2018-04-12T00:56:49.844Z,1002.19
2018-04-12T00:57:49.555Z,1002.16
2018-04-12T00:58:49.557Z,1002.17
2018-04-12T00:59:49.475Z,1002.13
2018-04-12T01:00:49.456Z,1002.14
2018-04-12T01:01:49.439Z,1002.11
2018-04-12T01:02:49.730Z,1002.11
2018-04-12T01:04:49.447Z,1002.08
2018-04-12T01:05:49.368Z,1002.11
2018-04-12T01:06:49.360Z,1002.08
2018-04-12T01:07:49.331Z,1002.07
2018-04-12T01:08:49.612Z,1002.10
2018-04-12T01:09:49.295Z,1002.06
2018-04-12T01:10:49.733Z,1002.08
2018-04-12T01:11:49.258Z,1002.02
2018-04-12T01:12:49.243Z,1001.96
2018-04-12T01:13:49.226Z,1001.97
2018-04-12T01:14:49.504Z,1001.98
2018-04-12T01:15:49.186Z,1001.94
2018-04-12T01:16:49.266Z,1001.98
2018-04-12T01:17:49.149Z,1001.98
2018-04-12T01:18:49.129Z,1001.93
2018-04-12T01:20:49.421Z,1001.88
2018-04-12T01:21:49.085Z,1001.90
2018-04-12T01:22:49.117Z,1001.83
2018-04-12T01:23:49.039Z,1001.81
2018-04-12T01:24:49.022Z,1001.80
2018-04-12T01:25:49.004Z,1001.81
2018-04-12T01:26:49.282Z,1001.83
2018-04-12T01:27:48.963Z,1001.82
2018-04-12T01:29:49.003Z,1001.83
2018-04-12T01:30:49.014Z,1001.78
2018-04-12T01:32:49.190Z,1001.76
2018-04-12T01:33:48.860Z,1001.72
2018-04-12T01:34:48.840Z,1001.68
2018-04-12T01:35:48.866Z,1001.69
2018-04-12T01:36:48.798Z,1001.64
2018-04-12T01:37:48.780Z,1001.59
2018-04-12T01:38:48.867Z,1001.56
2018-04-12T01:39:49.044Z,1001.57
2018-04-12T01:40:48.777Z,1001.54
2018-04-12T01:41:48.702Z,1001.55
2018-04-12T01:42:48.689Z,1001.64
2018-04-12T01:43:48.679Z,1001.67
2018-04-12T01:44:48.653Z,1001.62
2018-04-12T01:45:48.695Z,1001.61
2018-04-12T01:46:48.960Z,1001.59
2018-04-12T01:47:48.639Z,1001.59
2018-04-12T01:48:48.572Z,1001.58
2018-04-12T01:49:48.551Z,1001.62
2018-04-12T01:51:48.562Z,1001.56
2018-04-12T01:52:48.561Z,1001.56
2018-04-12T01:53:48.782Z,1001.50
2018-04-12T01:54:48.451Z,1001.50
2018-04-12T01:55:48.440Z,1001.48
2018-04-12T01:56:48.467Z,1001.48
2018-04-12T01:57:48.846Z,1001.41
2018-04-12T01:58:48.380Z,1001.39
2018-04-12T01:59:48.357Z,1001.37
2018-04-12T02:00:48.647Z,1001.38
2018-04-12T02:01:48.323Z,1001.37
2018-04-12T02:02:48.307Z,1001.40
2018-04-12T02:03:48.333Z,1001.38
2018-04-12T02:04:48.360Z,1001.37
2018-04-12T02:05:48.250Z,1001.37
2018-04-12T02:06:48.288Z,1001.40
2018-04-12T02:07:48.571Z,1001.40
2018-04-12T02:08:48.190Z,1001.40
2018-04-12T02:09:48.230Z,1001.38
2018-04-12T02:10:48.143Z,1001.39
2018-04-12T02:11:48.127Z,1001.38
2018-04-12T02:12:48.128Z,1001.40
2018-04-12T02:13:48.100Z,1001.36
2018-04-12T02:14:48.366Z,1001.35
2018-04-12T02:15:48.100Z,1001.34
2018-04-12T02:16:48.039Z,1001.31
2018-04-12T02:17:48.007Z,1001.30
2018-04-12T02:18:47.995Z,1001.30
2018-04-12T02:19:47.981Z,1001.30
2018-04-12T02:20:48.252Z,1001.25
2018-04-12T02:21:47.981Z,1001.21
2018-04-12T02:22:47.949Z,1001.22
2018-04-12T02:23:47.892Z,1001.20
2018-04-12T02:24:47.875Z,1001.18
2018-04-12T02:25:47.853Z,1001.11
2018-04-12T02:26:48.135Z,1001.07
2018-04-12T02:27:47.866Z,1001.06
2018-04-12T02:29:47.871Z,1001.05
2018-04-12T02:30:47.757Z,1001.05
2018-04-12T02:31:47.738Z,1001.07
2018-04-12T02:32:48.026Z,1001.08
2018-04-12T02:33:47.744Z,1001.05
2018-04-12T02:34:48.021Z,1001.04
2018-04-12T02:36:47.640Z,1001.06
2018-04-12T02:37:47.613Z,1001.01
2018-04-12T02:38:47.893Z,1001.00
2018-04-12T02:39:47.575Z,1000.99
2018-04-12T02:40:47.709Z,1000.97
2018-04-12T02:41:47.540Z,1001.02
2018-04-12T02:42:47.516Z,1001.02
2018-04-12T02:43:47.499Z,1000.99
2018-04-12T02:44:47.786Z,1000.98
2018-04-12T02:45:47.465Z,1000.96
2018-04-12T02:46:47.492Z,1000.95
2018-04-12T02:47:47.516Z,1000.96
2018-04-12T02:48:47.403Z,1000.93
2018-04-12T02:49:47.396Z,1000.89
2018-04-12T02:50:47.658Z,1000.88
2018-04-12T02:51:47.493Z,1000.90
2018-04-12T02:52:47.624Z,1000.90
2018-04-12T02:53:47.299Z,1000.82
2018-04-12T02:54:47.282Z,1000.83
2018-04-12T02:55:47.269Z,1000.83
2018-04-12T02:56:47.537Z,1000.86
2018-04-12T02:57:47.269Z,1000.88
2018-04-12T02:58:47.207Z,1000.89
2018-04-12T02:59:47.234Z,1000.90
2018-04-12T03:00:47.160Z,1000.93
2018-04-12T03:01:47.145Z,1000.95
2018-04-12T03:02:47.182Z,1000.95
2018-04-12T03:04:47.380Z,1000.94
2018-04-12T03:05:47.111Z,1000.94
2018-04-12T03:06:47.087Z,1000.93
2018-04-12T03:07:47.020Z,1000.88
2018-04-12T03:08:46.998Z,1000.91
2018-04-12T03:09:46.985Z,1000.93
2018-04-12T03:10:46.968Z,1000.92
2018-04-12T03:11:47.602Z,1000.91
2018-04-12T03:12:46.927Z,1000.89
2018-04-12T03:13:46.903Z,1000.91
2018-04-12T03:14:46.989Z,1000.82
2018-04-12T03:15:46.921Z,1000.86
2018-04-12T03:16:46.850Z,1000.85
2018-04-12T03:17:46.928Z,1000.84
2018-04-12T03:18:47.101Z,1000.82
2018-04-12T03:19:46.789Z,1000.79
2018-04-12T03:20:46.773Z,1000.79
2018-04-12T03:21:46.787Z,1000.79
2018-04-12T03:22:46.744Z,1000.78
2018-04-12T03:23:46.752Z,1000.77
2018-04-12T03:24:46.693Z,1000.77
2018-04-12T03:25:46.970Z,1000.76
2018-04-12T03:26:46.641Z,1000.74
2018-04-12T03:27:46.617Z,1000.68
2018-04-12T03:28:46.652Z,1000.68
2018-04-12T03:29:46.596Z,1000.59
2018-04-12T03:30:46.568Z,1000.61
2018-04-12T03:31:46.544Z,1000.65
2018-04-12T03:32:46.830Z,1000.68
2018-04-12T03:33:46.512Z,1000.76
2018-04-12T03:34:46.531Z,1000.72
2018-04-12T03:35:46.462Z,1000.73
2018-04-12T03:36:46.443Z,1000.68
2018-04-12T03:37:46.420Z,1000.67
2018-04-12T03:38:46.404Z,1000.67
2018-04-12T03:39:46.681Z,1000.64
2018-04-12T03:40:46.719Z,1000.62
2018-04-12T03:41:46.359Z,1000.61
2018-04-12T03:42:46.418Z,1000.58
2018-04-12T03:43:46.301Z,1000.53
2018-04-12T03:44:46.278Z,1000.50
2018-04-12T03:45:46.571Z,1000.47
2018-04-12T03:46:46.347Z,1000.47
2018-04-12T03:47:46.223Z,1000.44
2018-04-12T03:48:46.219Z,1000.43
2018-04-12T03:49:46.270Z,1000.41
2018-04-12T03:51:46.145Z,1000.50
2018-04-12T03:52:46.169Z,1000.49
2018-04-12T03:53:46.102Z,1000.47
2018-04-12T03:55:46.058Z,1000.47
2018-04-12T03:56:46.036Z,1000.41
2018-04-12T03:57:46.323Z,1000.43
2018-04-12T03:58:46.049Z,1000.41
2018-04-12T03:59:45.975Z,1000.39
2018-04-12T04:00:45.958Z,1000.37
2018-04-12T04:01:45.968Z,1000.36
2018-04-12T04:02:45.981Z,1000.33
2018-04-12T04:04:46.282Z,1000.32
2018-04-12T04:05:45.980Z,1000.28
2018-04-12T04:06:45.889Z,1000.24
2018-04-12T04:07:45.824Z,1000.25
2018-04-12T04:08:45.798Z,1000.24
2018-04-12T04:09:45.777Z,1000.22
2018-04-12T04:10:46.206Z,1000.21
2018-04-12T04:11:45.857Z,1000.22
2018-04-12T04:12:45.721Z,1000.20
2018-04-12T04:13:45.787Z,1000.21
2018-04-12T04:14:46.100Z,1000.20
2018-04-12T04:15:45.783Z,1000.20
2018-04-12T04:16:46.408Z,1000.26
2018-04-12T04:17:46.027Z,1000.25
2018-04-12T04:18:45.731Z,1000.24
2018-04-12T04:19:45.576Z,1000.25
2018-04-12T04:20:45.612Z,1000.19
2018-04-12T04:21:45.547Z,1000.24
2018-04-12T04:22:46.182Z,1000.19
2018-04-12T04:23:45.495Z,1000.20
2018-04-12T04:24:45.483Z,1000.17
2018-04-12T04:26:45.438Z,1000.18
2018-04-12T04:27:45.474Z,1000.19
2018-04-12T04:28:45.448Z,1000.15
2018-04-12T04:29:45.687Z,1000.15
2018-04-12T04:30:45.431Z,1000.17
2018-04-12T04:31:45.381Z,1000.14
2018-04-12T04:32:45.321Z,1000.16
2018-04-12T04:33:45.649Z,1000.16
2018-04-12T04:34:45.296Z,1000.14
2018-04-12T04:35:45.261Z,1000.15
2018-04-12T04:36:45.545Z,1000.13
2018-04-12T04:37:45.218Z,1000.13
2018-04-12T04:38:45.194Z,1000.13
2018-04-12T04:39:45.478Z,1000.14
2018-04-12T04:40:45.159Z,1000.08
2018-04-12T04:41:45.147Z,1000.12
2018-04-12T04:42:45.118Z,1000.09
2018-04-12T04:43:45.699Z,1000.10
2018-04-12T04:44:45.266Z,1000.09
2018-04-12T04:45:45.061Z,1000.06
2018-04-12T04:46:45.033Z,1000.07
2018-04-12T04:47:45.025Z,1000.02
2018-04-12T04:48:45.049Z,1000.02
2018-04-12T04:49:44.980Z,1000.07
2018-04-12T04:50:45.705Z,1000.06
2018-04-12T04:51:44.936Z,1000.06
2018-04-12T04:52:44.918Z,1000.06
2018-04-12T04:53:46.210Z,1000.05
2018-04-12T04:55:45.218Z,1000.10
2018-04-12T04:56:45.402Z,1000.10
2018-04-12T04:57:46.212Z,1000.08
2018-04-12T04:58:45.270Z,1000.08
2018-04-12T04:59:44.876Z,1000.04
2018-04-12T05:00:44.783Z,1000.03
2018-04-12T05:01:44.794Z,1000.04
2018-04-12T05:02:44.774Z,1000.02
2018-04-12T05:03:44.715Z,1000.02
2018-04-12T05:04:44.982Z,1000.01
2018-04-12T05:05:44.669Z,1000.02
2018-04-12T05:06:44.815Z,1000.02
2018-04-12T05:07:44.682Z,1000.04
2018-04-12T05:08:44.614Z,1000.02
2018-04-12T05:09:44.741Z,1000.03
2018-04-12T05:10:44.876Z,1000.03
2018-04-12T05:12:44.548Z,1000.05
2018-04-12T05:13:44.619Z,1000.01
2018-04-12T05:14:44.541Z,1000.07
2018-04-12T05:15:44.482Z,1000.05
2018-04-12T05:16:44.765Z,1000.09
2018-04-12T05:17:44.446Z,1000.07
2018-04-12T05:18:44.414Z,1000.05
2018-04-12T05:19:44.546Z,1000.07
2018-04-12T05:20:44.377Z,1000.09
2018-04-12T05:21:44.357Z,1000.08
2018-04-12T05:22:44.639Z,1000.09
2018-04-12T05:23:44.322Z,1000.08
2018-04-12T05:24:44.300Z,1000.08
2018-04-12T05:25:44.761Z,1000.08
2018-04-12T05:26:44.570Z,1000.12
2018-04-12T05:27:44.239Z,1000.13
2018-04-12T05:28:44.513Z,1000.13
2018-04-12T05:29:44.636Z,1000.16
2018-04-12T05:30:44.240Z,1000.15
2018-04-12T05:31:44.161Z,1000.13
2018-04-12T05:32:44.144Z,1000.14
2018-04-12T05:33:44.126Z,1000.10
2018-04-12T05:35:44.381Z,1000.09
2018-04-12T05:36:44.464Z,1000.06
2018-04-12T05:37:44.048Z,1000.06
2018-04-12T05:38:44.030Z,1000.08
2018-04-12T05:39:44.007Z,1000.08
2018-04-12T05:40:43.997Z,1000.11
2018-04-12T05:41:44.271Z,1000.12
2018-04-12T05:42:44.006Z,1000.06
2018-04-12T05:44:43.966Z,1000.12
2018-04-12T05:45:43.896Z,1000.14
2018-04-12T05:46:43.880Z,1000.17
2018-04-12T05:47:44.158Z,1000.16
2018-04-12T05:48:44.592Z,1000.22
2018-04-12T05:49:43.825Z,1000.22
2018-04-12T05:50:44.155Z,1000.18
2018-04-12T05:51:43.794Z,1000.14
2018-04-12T05:52:43.867Z,1000.15
2018-04-12T05:53:44.141Z,1000.15
2018-04-12T05:54:44.033Z,1000.11
2018-04-12T05:55:43.863Z,1000.15
2018-04-12T05:56:44.459Z,1000.17
2018-04-12T05:57:43.680Z,1000.18
2018-04-12T05:58:43.666Z,1000.15
2018-04-12T05:59:43.691Z,1000.11
2018-04-12T06:00:43.620Z,1000.13
2018-04-12T06:01:43.903Z,1000.12
2018-04-12T06:03:43.622Z,1000.08
2018-04-12T06:04:43.650Z,1000.09
2018-04-12T06:05:43.532Z,1000.08
2018-04-12T06:06:43.523Z,1000.11
2018-04-12T06:07:43.794Z,1000.09
2018-04-12T06:09:43.616Z,1000.10
2018-04-12T06:10:43.491Z,1000.06
2018-04-12T06:11:43.430Z,1000.07
2018-04-12T06:12:43.436Z,1000.12
2018-04-12T06:13:43.457Z,1000.05
2018-04-12T06:14:43.693Z,1000.14
2018-04-12T06:15:43.409Z,1000.11
2018-04-12T06:16:43.338Z,1000.07
2018-04-12T06:17:43.327Z,1000.06
2018-04-12T06:18:43.305Z,1000.07
2018-04-12T06:19:43.299Z,1000.09
2018-04-12T06:20:43.577Z,1000.05
2018-04-12T06:21:43.305Z,1000.04
2018-04-12T06:24:44.624Z,1000.02
2018-04-12T06:25:43.302Z,1000.06
2018-04-12T06:26:43.209Z,1000.03
2018-04-12T06:27:44.625Z,1000.04
2018-04-12T06:28:43.342Z,1000.03
2018-04-12T06:29:43.218Z,1000.00
2018-04-12T06:30:43.204Z,1000.01
2018-04-12T06:31:43.479Z,1000.01
2018-04-12T06:32:43.113Z,999.94
2018-04-12T06:33:43.397Z,999.95
2018-04-12T06:34:43.347Z,999.92
2018-04-12T06:36:43.766Z,999.89
2018-04-12T06:37:42.976Z,999.91
2018-04-12T06:38:42.963Z,999.89
2018-04-12T06:39:43.400Z,999.93
2018-04-12T06:40:43.226Z,999.92
2018-04-12T06:41:43.018Z,999.91
2018-04-12T06:42:42.897Z,999.94
2018-04-12T06:43:42.883Z,999.90
2018-04-12T06:44:42.870Z,999.92
2018-04-12T06:45:42.896Z,999.89
2018-04-12T06:46:43.153Z,999.87
2018-04-12T06:47:42.811Z,999.85
2018-04-12T06:48:42.809Z,999.89
2018-04-12T06:49:42.781Z,999.84
2018-04-12T06:50:42.876Z,999.84
2018-04-12T06:51:43.098Z,999.84
2018-04-12T06:52:43.033Z,999.81
2018-04-12T06:54:42.697Z,999.82
2018-04-12T06:55:42.733Z,999.84
2018-04-12T06:56:42.666Z,999.83
2018-04-12T06:57:42.700Z,999.78
2018-04-12T06:58:42.941Z,999.73
2018-04-12T06:59:42.767Z,999.75
2018-04-12T07:00:42.663Z,999.78
2018-04-12T07:01:42.605Z,999.75
2018-04-12T07:02:42.575Z,999.75
2018-04-12T07:03:42.659Z,999.72
2018-04-12T07:04:42.848Z,999.74
2018-04-12T07:05:42.531Z,999.69
2018-04-12T07:06:42.513Z,999.73
2018-04-12T07:07:42.499Z,999.81
2018-04-12T07:08:42.529Z,999.72
2018-04-12T07:09:42.568Z,999.68
2018-04-12T07:10:43.301Z,999.68
2018-04-12T07:11:43.342Z,999.74
2018-04-12T07:12:42.768Z,999.72
2018-04-12T07:13:42.599Z,999.70
2018-04-12T07:14:43.588Z,999.69
2018-04-12T07:15:42.421Z,999.71
2018-04-12T07:16:42.355Z,999.70
2018-04-12T07:17:42.642Z,999.73
2018-04-12T07:18:42.356Z,999.78
2018-04-12T07:20:42.596Z,999.70
2018-04-12T07:21:42.329Z,999.71
2018-04-12T07:22:42.270Z,999.68
2018-04-12T07:23:42.556Z,999.61
2018-04-12T07:25:43.723Z,999.61
2018-04-12T07:26:42.301Z,999.60
2018-04-12T07:27:42.599Z,999.61
2018-04-12T07:28:42.180Z,999.56
2018-04-12T07:29:42.476Z,999.63
2018-04-12T07:30:42.193Z,999.61
2018-04-12T07:31:42.280Z,999.64
2018-04-12T07:32:42.168Z,999.59
2018-04-12T07:33:42.206Z,999.61
2018-04-12T07:34:42.087Z,999.67
2018-04-12T07:35:42.071Z,999.68
2018-04-12T07:37:42.342Z,999.56
2018-04-12T07:38:42.043Z,999.55
2018-04-12T07:40:42.479Z,999.64
2018-04-12T07:41:41.984Z,999.60
2018-04-12T07:42:42.174Z,999.48
2018-04-12T07:43:42.023Z,999.53
2018-04-12T07:44:42.250Z,999.44
2018-04-12T07:45:41.925Z,999.48
2018-04-12T07:50:42.158Z,999.42
2018-04-12T07:53:41.871Z,999.46
2018-04-12T07:54:41.851Z,999.43
2018-04-12T07:55:41.794Z,999.42
2018-04-12T07:56:41.832Z,999.46
2018-04-12T07:57:42.074Z,999.50
2018-04-12T07:58:41.748Z,999.44
2018-04-12T07:59:41.911Z,999.44
2018-04-12T08:00:41.766Z,999.48
2018-04-12T08:01:41.703Z,999.47
2018-04-12T08:02:41.741Z,999.43
2018-04-12T08:05:41.950Z,999.38
2018-04-12T08:06:41.680Z,999.37
2018-04-12T08:07:41.628Z,999.40
2018-04-12T08:09:41.610Z,999.49
2018-04-12T08:10:41.590Z,999.59
2018-04-12T08:11:41.860Z,999.59
2018-04-12T08:12:41.597Z,999.48
2018-04-12T08:13:41.835Z,999.54
2018-04-12T08:14:41.524Z,999.54
2018-04-12T08:15:41.707Z,999.54
2018-04-12T08:16:41.553Z,999.55
2018-04-12T08:17:41.477Z,999.54
2018-04-12T08:18:41.867Z,999.82
2018-04-12T08:19:41.449Z,999.95
2018-04-12T08:20:41.444Z,999.68
2018-04-12T08:21:41.461Z,999.61
2018-04-12T08:22:41.471Z,999.57
2018-04-12T08:23:41.467Z,999.66
2018-04-12T08:24:42.226Z,999.88
2018-04-12T08:25:41.379Z,1000.10
2018-04-12T08:26:41.375Z,999.98
2018-04-12T08:27:41.499Z,999.96
2018-04-12T08:28:41.344Z,999.83
2018-04-12T08:29:41.327Z,1000.09
2018-04-12T08:30:41.717Z,999.99
2018-04-12T08:31:42.562Z,999.80
2018-04-12T08:32:41.290Z,999.79
2018-04-12T08:33:41.277Z,999.73
2018-04-12T08:34:41.264Z,999.74
2018-04-12T08:35:41.252Z,999.76
2018-04-12T08:36:41.293Z,999.85
2018-04-12T08:37:41.532Z,999.93
2018-04-12T08:38:41.377Z,999.85
2018-04-12T08:39:41.216Z,999.99
2018-04-12T08:40:41.198Z,1000.05
2018-04-12T08:41:41.192Z,1000.06
2018-04-12T08:42:41.233Z,1000.20
2018-04-12T08:43:41.464Z,1000.11
2018-04-12T08:44:41.160Z,1000.02
2018-04-12T08:45:41.152Z,1000.01
2018-04-12T08:46:41.135Z,1000.00
2018-04-12T08:47:43.028Z,1000.03
2018-04-12T08:48:41.409Z,1000.03
2018-04-12T08:49:41.911Z,1000.08
2018-04-12T08:50:41.100Z,1000.18
2018-04-12T08:51:41.117Z,1000.32
2018-04-12T08:52:41.147Z,1000.35
2018-04-12T08:53:41.264Z,1000.07
2018-04-12T08:54:41.762Z,999.90
2018-04-12T08:55:41.671Z,1000.30
2018-04-12T08:56:41.166Z,1000.22
2018-04-12T08:57:41.034Z,1000.37
2018-04-12T08:59:41.121Z,1000.29
2018-04-12T09:00:40.997Z,1000.17
2018-04-12T09:01:41.305Z,1000.29
2018-04-12T09:02:40.985Z,1000.34
2018-04-12T09:03:40.973Z,1000.18
2018-04-12T09:05:41.020Z,1000.10
2018-04-12T09:06:40.946Z,1000.06
2018-04-12T09:07:42.584Z,1000.10
2018-04-12T09:08:40.940Z,999.88
2018-04-12T09:09:40.923Z,999.76
2018-04-12T09:10:40.998Z,999.92
2018-04-12T09:11:40.959Z,999.75
2018-04-12T09:12:40.899Z,1000.19
2018-04-12T09:13:41.269Z,999.75
2018-04-12T09:15:40.925Z,999.84
2018-04-12T09:17:40.905Z,999.99
2018-04-12T09:18:40.850Z,999.91
2018-04-12T09:19:41.263Z,999.81
2018-04-12T09:20:40.845Z,999.89
2018-04-12T09:21:40.883Z,999.78
2018-04-12T09:22:40.839Z,999.71
2018-04-12T09:23:41.225Z,999.74
2018-04-12T09:24:40.802Z,999.69
2018-04-12T09:25:41.164Z,999.71
2018-04-12T09:26:40.921Z,999.61
2018-04-12T09:27:41.079Z,999.52
2018-04-12T09:29:41.334Z,999.43
2018-04-12T09:30:41.099Z,999.49
2018-04-12T09:31:41.848Z,999.47
2018-04-12T09:33:40.769Z,999.51
2018-04-12T09:34:40.817Z,999.54
2018-04-12T09:35:40.764Z,999.52
2018-04-12T09:36:41.775Z,999.57
2018-04-12T09:37:41.251Z,999.51
2018-04-12T09:39:40.730Z,999.24
2018-04-12T09:40:40.674Z,999.18
2018-04-12T09:41:40.663Z,999.22
2018-04-12T09:42:40.656Z,999.18
2018-04-12T09:44:46.767Z,999.18
2018-04-12T09:45:40.826Z,999.04
2018-04-12T09:46:42.002Z,998.99
2018-04-12T09:48:40.610Z,999.28
2018-04-12T09:50:40.989Z,999.56
2018-04-12T09:51:40.611Z,999.42
2018-04-12T09:52:40.580Z,999.37
2018-04-12T09:53:41.290Z,999.34
2018-04-12T09:54:40.633Z,999.36
2018-04-12T09:55:40.689Z,999.30
2018-04-12T10:00:40.893Z,999.33
2018-04-12T10:01:40.616Z,999.27
2018-04-12T10:02:40.686Z,999.39
2018-04-12T10:03:40.491Z,999.35
2018-04-12T10:05:40.520Z,999.19
2018-04-12T10:06:40.891Z,999.20
2018-04-12T10:09:40.574Z,999.18
2018-04-12T10:11:40.591Z,999.05
2018-04-12T10:12:40.792Z,998.90
2018-04-12T10:13:40.572Z,998.97
2018-04-12T10:14:40.625Z,998.96
2018-04-12T10:15:40.627Z,998.94
2018-04-12T10:16:40.439Z,999.03
2018-04-12T10:17:40.429Z,998.97
2018-04-12T10:18:40.710Z,998.97
2018-04-12T10:19:40.416Z,998.94
2018-04-12T10:20:40.399Z,998.63
2018-04-12T10:21:40.460Z,998.60
2018-04-12T10:22:40.387Z,998.76
2018-04-12T10:23:40.399Z,998.92
2018-04-12T10:24:40.956Z,998.94
2018-04-12T10:25:40.547Z,998.76
2018-04-12T10:27:40.939Z,998.71
2018-04-12T10:28:40.502Z,998.73
2018-04-12T10:29:40.358Z,998.53
2018-04-12T10:30:40.649Z,998.48
2018-04-12T10:31:40.341Z,998.60
2018-04-12T10:32:40.350Z,998.54
2018-04-12T10:33:40.786Z,998.58
2018-04-12T10:34:40.386Z,998.41
2018-04-12T10:35:40.339Z,998.37
2018-04-12T10:38:40.630Z,998.37
2018-04-12T10:39:40.363Z,998.42
2018-04-12T10:41:40.357Z,998.66
2018-04-12T10:42:40.651Z,998.77
2018-04-12T10:43:40.278Z,998.77
2018-04-12T10:44:40.874Z,998.64
2018-04-12T10:45:40.327Z,998.66
2018-04-12T10:46:40.323Z,998.59
2018-04-12T10:47:40.280Z,998.67
2018-04-12T10:49:40.245Z,998.66
2018-04-12T10:50:40.593Z,998.60
2018-04-12T10:51:40.285Z,998.57
2018-04-12T10:52:40.236Z,998.53
2018-04-12T10:53:40.242Z,998.51
2018-04-12T10:54:40.382Z,998.52
2018-04-12T10:55:40.300Z,998.59
2018-04-12T10:56:40.500Z,998.58
2018-04-12T10:57:40.200Z,998.63
2018-04-12T10:59:40.193Z,998.55
2018-04-12T11:00:40.221Z,998.57
2018-04-12T11:01:40.169Z,998.58
2018-04-12T11:02:40.456Z,998.54
2018-04-12T11:03:40.160Z,998.53
2018-04-12T11:04:40.145Z,998.56
2018-04-12T11:06:40.185Z,998.54
2018-04-12T11:07:40.631Z,998.51
2018-04-12T11:08:40.415Z,998.50
2018-04-12T11:09:40.124Z,998.50
2018-04-12T11:10:40.158Z,998.55
2018-04-12T11:11:40.094Z,998.50
2018-04-12T11:13:40.545Z,998.51
2018-04-12T11:14:40.608Z,998.50
2018-04-12T11:15:40.647Z,998.47
2018-04-12T11:16:40.331Z,998.44
2018-04-12T11:17:40.327Z,998.42
2018-04-12T11:18:40.053Z,998.48
2018-04-12T11:19:40.087Z,998.55
2018-04-12T11:20:40.465Z,998.53
2018-04-12T11:21:40.131Z,998.51
2018-04-12T11:22:41.248Z,998.50
2018-04-12T11:23:40.559Z,998.54
2018-04-12T11:24:41.435Z,998.60
2018-04-12T11:25:40.129Z,998.63
2018-04-12T11:26:40.527Z,998.65
2018-04-12T11:27:40.154Z,998.68
2018-04-12T11:28:40.010Z,998.69
2018-04-12T11:29:39.954Z,998.68
2018-04-12T11:32:40.273Z,998.65
2018-04-12T11:35:40.001Z,998.70
2018-04-12T11:36:40.258Z,998.75
2018-04-12T11:37:40.350Z,998.82
2018-04-12T11:40:40.432Z,998.93
2018-04-12T11:41:40.543Z,998.85
2018-04-12T11:42:40.053Z,998.92
2018-04-12T11:43:40.413Z,999.01
2018-04-12T11:47:40.139Z,998.88
2018-04-12T11:49:39.853Z,998.80
2018-04-12T11:50:39.761Z,998.74
2018-04-12T11:51:39.756Z,998.65
2018-04-12T11:53:40.060Z,998.62
2018-04-12T11:54:39.744Z,998.61
2018-04-12T11:57:02.474Z,998.57
2018-04-12T11:57:39.704Z,998.65
2018-04-12T11:58:39.697Z,998.67
2018-04-12T11:59:39.988Z,998.69
2018-04-12T12:01:39.703Z,998.56
2018-04-12T12:02:39.721Z,998.58
2018-04-12T12:03:39.676Z,998.62
2018-04-12T12:04:39.643Z,998.71
2018-04-12T12:05:39.643Z,998.86
2018-04-12T12:06:39.935Z,998.82
2018-04-12T12:07:39.630Z,998.89
2018-04-12T12:09:39.675Z,998.81
2018-04-12T12:11:39.614Z,998.71
2018-04-12T12:12:39.889Z,998.87
2018-04-12T12:14:39.577Z,998.87
2018-04-12T12:15:39.622Z,998.83
2018-04-12T12:16:39.567Z,998.77
2018-04-12T12:19:40.034Z,998.64
2018-04-12T12:20:39.633Z,998.63
2018-04-12T12:21:39.644Z,998.56
2018-04-12T12:22:39.565Z,998.52
2018-04-12T12:23:39.611Z,998.45
2018-04-12T12:24:39.735Z,998.35
2018-04-12T12:25:39.555Z,998.24
2018-04-12T12:26:39.825Z,998.25
2018-04-12T12:27:39.626Z,998.22
2018-04-12T12:28:39.624Z,998.19
2018-04-12T12:29:39.506Z,997.98
2018-04-12T12:30:39.505Z,998.22
2018-04-12T12:31:39.503Z,998.17
2018-04-12T12:32:39.497Z,998.03
2018-04-12T12:33:40.143Z,998.11
2018-04-12T12:34:39.724Z,998.14
2018-04-12T12:35:39.627Z,998.18
2018-04-12T12:36:39.668Z,998.00
2018-04-12T12:37:39.756Z,998.12
2018-04-12T12:38:39.599Z,998.24
2018-04-12T12:39:39.514Z,998.25
2018-04-12T12:40:40.046Z,998.28
2018-04-12T12:41:39.810Z,998.24
2018-04-12T12:42:39.537Z,998.17
2018-04-12T12:43:39.835Z,998.18
2018-04-12T12:44:39.483Z,998.04
2018-04-12T12:45:39.480Z,997.84
2018-04-12T12:46:39.860Z,997.90
2018-04-12T12:47:40.068Z,997.92
2018-04-12T12:48:39.841Z,997.93
2018-04-12T12:49:40.221Z,998.24
2018-04-12T12:50:39.546Z,998.03
2018-04-12T12:51:39.894Z,997.91
2018-04-12T12:52:40.015Z,997.82
2018-04-12T12:53:39.455Z,998.01
2018-04-12T12:54:39.550Z,998.31
2018-04-12T12:55:40.069Z,998.24
2018-04-12T12:57:39.451Z,998.35
2018-04-12T13:02:40.094Z,997.80
2018-04-12T13:03:40.258Z,997.75
2018-04-12T13:04:39.519Z,997.71
2018-04-12T13:06:39.425Z,997.63
2018-04-12T13:07:39.419Z,997.72
2018-04-12T13:08:39.469Z,997.69
2018-04-12T13:09:39.466Z,997.55
2018-04-12T13:10:39.419Z,997.53
2018-04-12T13:11:39.820Z,997.58
2018-04-12T13:12:39.498Z,998.05
2018-04-12T13:13:39.716Z,997.70
2018-04-12T13:14:39.453Z,997.87
2018-04-12T13:15:39.513Z,997.55
2018-04-12T13:16:39.377Z,997.60
2018-04-12T13:17:39.372Z,997.68
2018-04-12T13:18:39.453Z,997.90
2018-04-12T13:19:39.670Z,997.83
2018-04-12T13:20:39.622Z,998.12
2018-04-12T13:22:39.426Z,997.96
2018-04-12T13:23:39.352Z,998.05
2018-04-12T13:24:39.355Z,998.01
2018-04-12T13:25:39.643Z,997.90
2018-04-12T13:26:39.409Z,998.14
2018-04-12T13:27:39.353Z,997.82
2018-04-12T13:29:39.333Z,998.08
2018-04-12T13:30:39.338Z,997.98
2018-04-12T13:31:39.625Z,997.57
2018-04-12T13:32:40.081Z,997.54
2018-04-12T13:33:39.323Z,997.63
2018-04-12T13:34:39.323Z,997.74
2018-04-12T13:35:39.335Z,997.71
2018-04-12T13:36:39.369Z,997.55
2018-04-12T13:38:40.095Z,997.49
2018-04-12T13:39:39.313Z,997.45
2018-04-12T13:40:39.296Z,997.44
2018-04-12T13:41:39.291Z,997.43
2018-04-12T13:42:39.296Z,997.42
2018-04-12T13:43:39.292Z,997.41
2018-04-12T13:44:39.633Z,997.43
2018-04-12T13:45:39.280Z,997.46
2018-04-12T13:46:39.291Z,997.74